createdAt,value
2023-01-12T00:01:57.997Z,1.70
2023-01-12T00:04:25.019Z,1.80
2023-01-12T00:06:52.024Z,1.60
2023-01-12T00:09:18.752Z,1.77
2023-01-12T00:11:45.542Z,2.07
2023-01-12T00:14:15.386Z,2.37
2023-01-12T00:16:42.447Z,2.50
2023-01-12T00:19:17.735Z,2.73
2023-01-12T00:22:10.296Z,3.30
2023-01-12T00:24:46.987Z,3.00
2023-01-12T00:27:16.480Z,3.07
2023-01-12T00:29:43.784Z,3.70
2023-01-12T00:32:13.987Z,3.03
2023-01-12T00:34:40.974Z,2.70
2023-01-12T00:37:10.691Z,3.37
2023-01-12T00:39:40.775Z,3.20
2023-01-12T00:42:49.627Z,3.73
2023-01-12T00:45:22.238Z,2.43
2023-01-12T00:47:53.573Z,2.93
2023-01-12T00:50:20.477Z,2.40
2023-01-12T00:52:47.498Z,2.60
2023-01-12T00:55:14.444Z,3.03
2023-01-12T00:57:41.217Z,2.50
2023-01-12T01:00:08.643Z,2.47
2023-01-12T01:02:35.667Z,2.00
2023-01-12T01:05:02.427Z,2.53
2023-01-12T01:07:29.134Z,2.93
2023-01-12T01:09:55.869Z,2.10
2023-01-12T01:12:22.826Z,2.23
2023-01-12T01:14:49.807Z,2.43
2023-01-12T01:17:19.376Z,2.57
2023-01-12T01:19:50.488Z,2.40
2023-01-12T01:22:17.333Z,2.20
2023-01-12T01:24:44.121Z,2.30
2023-01-12T01:27:10.828Z,2.83
2023-01-12T01:29:37.594Z,2.10
2023-01-12T01:32:04.927Z,2.40
2023-01-12T01:34:31.938Z,2.70
2023-01-12T01:36:59.285Z,2.40
2023-01-12T01:39:26.267Z,2.70
2023-01-12T01:41:53.175Z,2.10
2023-01-12T01:44:32.058Z,2.80
2023-01-12T01:47:13.224Z,3.13
2023-01-12T01:49:43.433Z,4.00
2023-01-12T01:52:16.773Z,2.60
2023-01-12T01:54:51.167Z,3.07
2023-01-12T01:57:18.498Z,3.37
2023-01-12T01:59:52.511Z,3.03
2023-01-12T02:02:19.748Z,2.60
2023-01-12T02:04:46.643Z,3.07
2023-01-12T02:07:13.788Z,2.83
2023-01-12T02:09:43.178Z,3.03
2023-01-12T02:12:28.475Z,2.60
2023-01-12T02:15:14.307Z,2.57
2023-01-12T02:18:02.299Z,2.70
2023-01-12T02:21:09.643Z,2.50
2023-01-12T02:24:19.749Z,2.57
2023-01-12T02:26:55.177Z,2.23
2023-01-12T02:29:27.944Z,2.17
2023-01-12T02:32:19.762Z,2.13
2023-01-12T02:35:26.334Z,2.80
2023-01-12T02:38:10.315Z,2.23
2023-01-12T02:40:48.013Z,2.50
2023-01-12T02:43:41.896Z,1.87
2023-01-12T02:46:32.158Z,2.90
2023-01-12T02:49:08.012Z,2.93
2023-01-12T02:51:48.799Z,2.03
2023-01-12T02:54:19.504Z,2.63
2023-01-12T02:56:55.270Z,2.30
2023-01-12T02:59:27.814Z,2.23
2023-01-12T03:01:59.637Z,2.27
2023-01-12T03:04:28.217Z,3.00
2023-01-12T03:06:57.664Z,2.30
2023-01-12T03:09:47.915Z,2.50
2023-01-12T03:12:25.592Z,2.97
2023-01-12T03:14:57.040Z,2.60
2023-01-12T03:17:28.901Z,2.57
2023-01-12T03:20:02.339Z,1.80
2023-01-12T03:22:30.860Z,2.10
2023-01-12T03:25:02.229Z,1.80
2023-01-12T03:27:34.858Z,2.33
2023-01-12T03:30:11.268Z,1.97
2023-01-12T03:32:41.082Z,2.10
2023-01-12T03:35:09.320Z,1.67
2023-01-12T03:37:46.518Z,2.33
2023-01-12T03:40:35.488Z,1.70
2023-01-12T03:43:23.673Z,1.70
2023-01-12T03:46:09.059Z,1.90
2023-01-12T03:48:46.551Z,1.50
2023-01-12T03:51:16.496Z,2.10
2023-01-12T03:53:45.850Z,1.50
2023-01-12T03:56:13.986Z,1.57
2023-01-12T03:58:41.517Z,1.27
2023-01-12T04:01:11.906Z,1.60
2023-01-12T04:03:38.745Z,1.70
2023-01-12T04:06:05.890Z,1.27
2023-01-12T04:08:32.663Z,1.60
2023-01-12T04:10:59.768Z,1.40
2023-01-12T04:13:26.506Z,1.40
2023-01-12T04:15:53.251Z,1.40
2023-01-12T04:18:19.984Z,1.13
2023-01-12T04:20:49.638Z,1.67
2023-01-12T04:23:16.302Z,1.63
2023-01-12T04:25:43.137Z,1.30
2023-01-12T04:28:09.923Z,1.93
2023-01-12T04:30:36.730Z,1.13
2023-01-12T04:33:08.255Z,1.47
2023-01-12T04:35:38.024Z,1.60
2023-01-12T04:38:10.138Z,2.00
2023-01-12T04:40:36.811Z,1.30
2023-01-12T04:43:10.977Z,1.50
2023-01-12T04:45:46.525Z,1.20
2023-01-12T04:48:14.530Z,2.00
2023-01-12T04:50:42.269Z,1.30
2023-01-12T04:53:11.124Z,1.37
2023-01-12T04:55:43.215Z,1.60
2023-01-12T04:58:13.020Z,1.70
2023-01-12T05:00:39.710Z,1.43
2023-01-12T05:03:09.453Z,1.73
2023-01-12T05:05:36.458Z,1.40
2023-01-12T05:08:23.213Z,1.90
2023-01-12T05:10:52.004Z,2.27
2023-01-12T05:13:19.015Z,1.53
2023-01-12T05:15:45.751Z,1.20
2023-01-12T05:18:12.642Z,1.30
2023-01-12T05:20:39.374Z,1.60
2023-01-12T05:23:13.326Z,1.50
2023-01-12T05:25:40.033Z,1.50
2023-01-12T05:28:06.753Z,1.20
2023-01-12T05:30:33.562Z,1.43
2023-01-12T05:33:00.405Z,1.63
2023-01-12T05:35:27.473Z,1.40
2023-01-12T05:37:59.765Z,1.30
2023-01-12T05:40:26.440Z,1.47
2023-01-12T05:43:11.887Z,1.23
2023-01-12T05:45:38.725Z,1.20
2023-01-12T05:48:05.800Z,1.60
2023-01-12T05:50:32.855Z,1.10
2023-01-12T05:52:59.621Z,1.10
2023-01-12T05:55:31.239Z,1.10
2023-01-12T05:57:59.899Z,1.20
2023-01-12T06:00:26.780Z,1.10
2023-01-12T06:02:53.664Z,1.30
2023-01-12T06:05:20.724Z,1.30
2023-01-12T06:07:47.543Z,1.57
2023-01-12T06:10:14.304Z,1.10
2023-01-12T06:12:59.814Z,1.20
2023-01-12T06:15:26.804Z,0.90
2023-01-12T06:17:53.546Z,1.03
2023-01-12T06:20:20.345Z,0.97
2023-01-12T06:22:47.128Z,0.90
2023-01-12T06:25:13.996Z,0.87
2023-01-12T06:27:40.724Z,0.80
2023-01-12T06:30:08.600Z,1.00
2023-01-12T06:32:35.957Z,1.00
2023-01-12T06:35:14.016Z,0.73
2023-01-12T06:37:45.347Z,0.80
2023-01-12T06:40:12.976Z,0.83
2023-01-12T06:42:45.819Z,1.20
2023-01-12T06:45:12.536Z,0.73
2023-01-12T06:47:52.099Z,1.13
2023-01-12T06:50:19.107Z,0.80
2023-01-12T06:52:45.924Z,1.03
2023-01-12T06:55:12.726Z,0.90
2023-01-12T06:57:42.132Z,0.80
2023-01-12T07:00:09.738Z,0.77
2023-01-12T07:02:36.509Z,1.00
2023-01-12T07:05:06.986Z,1.53
2023-01-12T07:07:33.810Z,1.00
2023-01-12T07:10:00.646Z,1.00
2023-01-12T07:12:27.449Z,0.90
2023-01-12T07:14:56.143Z,0.87
2023-01-12T07:17:22.952Z,1.00
2023-01-12T07:19:49.681Z,0.90
2023-01-12T07:22:19.204Z,1.00
2023-01-12T07:24:46.134Z,0.90
2023-01-12T07:27:17.633Z,0.70
2023-01-12T07:29:46.583Z,0.83
2023-01-12T07:32:13.316Z,0.80
2023-01-12T07:34:40.124Z,0.90
2023-01-12T07:37:07.084Z,1.10
2023-01-12T07:39:33.769Z,1.10
2023-01-12T07:42:19.031Z,1.20
2023-01-12T07:44:45.784Z,1.00
2023-01-12T07:47:15.688Z,0.90
2023-01-12T07:49:42.668Z,1.00
2023-01-12T07:52:12.344Z,1.00
2023-01-12T07:54:39.095Z,0.80
2023-01-12T07:57:09.692Z,0.80
2023-01-12T07:59:36.859Z,0.93
2023-01-12T08:02:04.714Z,1.20
2023-01-12T08:04:31.916Z,1.07
2023-01-12T08:06:58.725Z,1.13
2023-01-12T08:09:25.631Z,1.33
2023-01-12T08:11:52.416Z,1.37
2023-01-12T08:14:33.449Z,1.47
2023-01-12T08:17:02.300Z,1.77
2023-01-12T08:20:02.217Z,1.53
2023-01-12T08:22:34.569Z,1.80
2023-01-12T08:25:10.594Z,1.43
2023-01-12T08:27:40.607Z,1.83
2023-01-12T08:30:09.085Z,1.73
2023-01-12T08:32:37.233Z,1.70
2023-01-12T08:35:05.019Z,1.63
2023-01-12T08:37:34.281Z,1.67
2023-01-12T08:40:01.655Z,1.40
2023-01-12T08:42:31.550Z,1.50
2023-01-12T08:44:58.533Z,1.63
2023-01-12T08:47:30.637Z,1.30
2023-01-12T08:50:00.195Z,1.53
2023-01-12T08:52:32.881Z,1.47
2023-01-12T08:54:59.583Z,1.60
2023-01-12T08:57:27.308Z,1.30
2023-01-12T08:59:53.978Z,1.50
2023-01-12T09:02:20.921Z,1.30
2023-01-12T09:04:47.722Z,1.53
2023-01-12T09:07:14.574Z,1.40
2023-01-12T09:09:41.322Z,1.60
2023-01-12T09:12:08.132Z,1.60
2023-01-12T09:14:39.107Z,1.67
2023-01-12T09:17:07.169Z,1.30
2023-01-12T09:19:34.156Z,1.50
2023-01-12T09:22:00.900Z,1.63
2023-01-12T09:24:27.667Z,1.90
2023-01-12T09:26:54.493Z,1.30
2023-01-12T09:29:23.337Z,1.70
2023-01-12T09:31:53.175Z,1.50
2023-01-12T09:34:19.980Z,1.40
2023-01-12T09:36:46.802Z,1.20
2023-01-12T09:39:26.939Z,1.53
2023-01-12T09:42:13.181Z,1.57
2023-01-12T09:45:03.120Z,1.30
2023-01-12T09:47:40.404Z,1.20
2023-01-12T09:50:20.427Z,1.10
2023-01-12T09:53:01.807Z,1.20
2023-01-12T09:55:43.847Z,1.10
2023-01-12T09:58:34.449Z,1.30
2023-01-12T10:01:09.013Z,1.27
2023-01-12T10:03:39.631Z,1.10
2023-01-12T10:06:09.413Z,1.60
2023-01-12T10:08:43.864Z,1.47
2023-01-12T10:11:47.552Z,1.30
2023-01-12T10:14:32.367Z,1.30
2023-01-12T10:17:17.393Z,1.30
2023-01-12T10:19:56.409Z,1.10
2023-01-12T10:22:40.909Z,1.07
2023-01-12T10:25:23.308Z,0.90
2023-01-12T10:27:53.458Z,1.00
2023-01-12T10:30:41.028Z,1.13
2023-01-12T10:33:13.749Z,1.07
2023-01-12T10:36:10.777Z,0.90
2023-01-12T10:38:39.948Z,1.27
2023-01-12T10:41:13.064Z,1.57
2023-01-12T10:43:42.180Z,1.20
2023-01-12T10:46:18.047Z,1.13
2023-01-12T10:48:50.155Z,1.17
2023-01-12T10:51:24.632Z,1.10
2023-01-12T10:53:55.291Z,1.23
2023-01-12T10:56:33.651Z,1.30
2023-01-12T10:59:07.123Z,1.30
2023-01-12T11:01:45.252Z,0.97
2023-01-12T11:04:21.437Z,1.10
2023-01-12T11:07:00.510Z,1.23
2023-01-12T11:09:29.511Z,1.20
2023-01-12T11:11:58.589Z,1.20
2023-01-12T11:14:39.486Z,1.17
2023-01-12T11:17:31.225Z,1.10
2023-01-12T11:20:04.120Z,1.07
2023-01-12T11:22:36.119Z,0.93
2023-01-12T11:25:10.034Z,1.03
2023-01-12T11:27:52.276Z,0.73
2023-01-12T11:30:46.086Z,0.90
2023-01-12T11:33:30.036Z,0.87
2023-01-12T11:36:23.291Z,1.00
2023-01-12T11:38:56.197Z,1.13
2023-01-12T11:41:29.850Z,0.80
2023-01-12T11:44:12.138Z,0.70
2023-01-12T11:46:41.138Z,0.90
2023-01-12T11:49:26.029Z,0.70
2023-01-12T11:51:58.127Z,0.83
2023-01-12T11:54:29.973Z,1.10
2023-01-12T11:57:16.961Z,1.00
2023-01-12T11:59:56.394Z,0.90
2023-01-12T12:02:57.410Z,0.90
2023-01-12T12:06:02.737Z,1.17
2023-01-12T12:08:32.071Z,1.10
2023-01-12T12:11:16.015Z,1.73
2023-01-12T12:14:02.908Z,1.07
2023-01-12T12:16:53.701Z,1.50
2023-01-12T12:19:36.455Z,1.50
2023-01-12T12:22:34.635Z,1.70
2023-01-12T12:25:26.951Z,1.60
2023-01-12T12:28:21.348Z,1.63
2023-01-12T12:31:06.374Z,1.40
2023-01-12T12:33:40.703Z,1.23
2023-01-12T12:36:26.935Z,1.13
2023-01-12T12:39:14.644Z,1.10
2023-01-12T12:42:24.047Z,1.20
2023-01-12T12:45:21.655Z,1.10
2023-01-12T12:48:15.777Z,0.90
2023-01-12T12:50:48.418Z,0.90
2023-01-12T12:53:18.142Z,1.00
2023-01-12T12:55:45.995Z,1.20
2023-01-12T12:58:21.565Z,0.77
2023-01-12T13:00:53.249Z,0.87
2023-01-12T13:03:41.894Z,0.97
2023-01-12T13:06:31.370Z,0.80
2023-01-12T13:09:02.828Z,0.60
2023-01-12T13:11:54.916Z,1.20
2023-01-12T13:14:21.708Z,0.70
2023-01-12T13:16:51.959Z,0.70
2023-01-12T13:19:36.754Z,0.60
2023-01-12T13:22:28.258Z,0.50
2023-01-12T13:24:56.954Z,0.53
2023-01-12T13:28:00.748Z,0.60
2023-01-12T13:30:39.598Z,0.50
2023-01-12T13:33:15.212Z,0.67
2023-01-12T13:35:44.788Z,0.50
2023-01-12T13:38:33.344Z,0.40
2023-01-12T13:41:44.412Z,0.40
2023-01-12T13:44:30.242Z,0.43
2023-01-12T13:47:15.565Z,0.50
2023-01-12T13:49:53.256Z,0.67
2023-01-12T13:52:34.067Z,0.67
2023-01-12T13:55:00.900Z,0.50
2023-01-12T13:57:30.410Z,0.60
2023-01-12T14:00:09.113Z,0.40
2023-01-12T14:02:38.259Z,0.60
2023-01-12T14:05:13.976Z,0.53
2023-01-12T14:08:11.503Z,0.50
2023-01-12T14:10:42.796Z,0.50
2023-01-12T14:13:24.210Z,0.43
2023-01-12T14:16:19.230Z,0.60
2023-01-12T14:18:48.539Z,0.80
2023-01-12T14:21:29.131Z,0.50
2023-01-12T14:24:25.526Z,0.60
2023-01-12T14:26:52.383Z,0.70
2023-01-12T14:29:19.318Z,0.70
2023-01-12T14:31:53.851Z,0.80
2023-01-12T14:34:27.708Z,0.80
2023-01-12T14:36:55.195Z,0.80
2023-01-12T14:39:28.252Z,0.60
2023-01-12T14:42:14.625Z,0.77
2023-01-12T14:45:12.525Z,0.90
2023-01-12T14:47:41.477Z,1.20
2023-01-12T14:50:14.310Z,0.80
2023-01-12T14:52:43.307Z,0.77
2023-01-12T14:55:25.158Z,0.60
2023-01-12T14:58:01.744Z,0.80
2023-01-12T15:00:32.815Z,1.00
2023-01-12T15:03:04.971Z,0.97
2023-01-12T15:05:34.288Z,0.77
2023-01-12T15:08:04.388Z,1.10
2023-01-12T15:10:41.026Z,0.80
2023-01-12T15:13:43.277Z,1.00
2023-01-12T15:16:28.762Z,0.73
2023-01-12T15:19:13.979Z,0.80
2023-01-12T15:22:01.657Z,0.90
2023-01-12T15:24:54.288Z,0.83
2023-01-12T15:27:23.573Z,0.90
2023-01-12T15:29:51.196Z,0.90
2023-01-12T15:32:38.045Z,0.80
2023-01-12T15:35:21.584Z,0.70
2023-01-12T15:37:48.859Z,0.93
2023-01-12T15:40:16.401Z,0.70
2023-01-12T15:42:43.308Z,0.80
2023-01-12T15:45:30.275Z,0.90
2023-01-12T15:47:57.170Z,0.80
2023-01-12T15:50:24.570Z,0.90
2023-01-12T15:52:51.557Z,0.70
2023-01-12T15:55:21.256Z,1.40
2023-01-12T15:57:48.482Z,1.13
2023-01-12T16:00:19.498Z,1.40
2023-01-12T16:02:51.661Z,0.90
2023-01-12T16:05:26.509Z,1.23
2023-01-12T16:07:53.553Z,0.90
2023-01-12T16:10:21.087Z,0.97
2023-01-12T16:12:48.088Z,1.00
2023-01-12T16:15:23.777Z,1.20
2023-01-12T16:17:51.721Z,1.20
2023-01-12T16:20:22.822Z,1.20
2023-01-12T16:22:49.668Z,1.07
2023-01-12T16:25:16.603Z,1.27
2023-01-12T16:27:43.510Z,1.10
2023-01-12T16:30:14.157Z,1.20
2023-01-12T16:32:45.843Z,1.20
2023-01-12T16:35:13.665Z,1.20
2023-01-12T16:37:40.423Z,1.20
2023-01-12T16:40:07.856Z,1.40
2023-01-12T16:42:36.632Z,1.43
2023-01-12T16:45:03.717Z,1.00
2023-01-12T16:47:33.459Z,1.10
2023-01-12T16:50:02.893Z,1.53
2023-01-12T16:52:29.920Z,1.30
2023-01-12T16:54:56.727Z,1.30
2023-01-12T16:57:26.587Z,1.10
2023-01-12T17:00:00.889Z,1.10
2023-01-12T17:02:28.860Z,1.03
2023-01-12T17:04:55.994Z,1.00
2023-01-12T17:07:28.557Z,1.23
2023-01-12T17:09:55.634Z,1.30
2023-01-12T17:12:22.394Z,1.30
2023-01-12T17:14:49.449Z,1.10
2023-01-12T17:17:16.426Z,1.37
2023-01-12T17:19:44.848Z,1.20
2023-01-12T17:22:12.411Z,1.30
2023-01-12T17:24:40.729Z,1.20
2023-01-12T17:27:09.459Z,1.37
2023-01-12T17:29:36.777Z,1.53
2023-01-12T17:32:06.926Z,1.60
2023-01-12T17:34:41.011Z,1.43
2023-01-12T17:37:08.385Z,1.53
2023-01-12T17:39:37.596Z,1.63
2023-01-12T17:42:23.171Z,1.37
2023-01-12T17:44:50.043Z,1.43
2023-01-12T17:47:16.874Z,1.67
2023-01-12T17:49:45.327Z,1.80
2023-01-12T17:52:12.201Z,1.80
2023-01-12T17:54:43.042Z,1.63
2023-01-12T17:57:11.906Z,1.73
2023-01-12T17:59:38.777Z,1.83
2023-01-12T18:02:07.093Z,1.90
2023-01-12T18:04:34.037Z,2.03
2023-01-12T18:07:00.845Z,1.73
2023-01-12T18:09:28.178Z,1.60
2023-01-12T18:11:55.452Z,1.70
2023-01-12T18:14:24.429Z,1.60
2023-01-12T18:16:51.341Z,1.80
2023-01-12T18:19:18.156Z,1.70
2023-01-12T18:21:44.961Z,1.73
2023-01-12T18:24:11.906Z,2.20
2023-01-12T18:26:38.749Z,1.90
2023-01-12T18:29:06.753Z,2.07
2023-01-12T18:31:38.387Z,1.70
2023-01-12T18:34:06.392Z,1.83
2023-01-12T18:36:35.565Z,1.70
2023-01-12T18:39:04.115Z,2.37
2023-01-12T18:41:49.272Z,2.40
2023-01-12T18:44:16.114Z,2.33
2023-01-12T18:47:03.116Z,2.17
2023-01-12T18:49:32.200Z,2.50
2023-01-12T18:52:18.526Z,2.50
2023-01-12T18:54:54.808Z,2.00
2023-01-12T18:57:24.333Z,2.33
2023-01-12T18:59:55.308Z,2.13
2023-01-12T19:02:22.289Z,2.43
2023-01-12T19:04:50.005Z,2.13
2023-01-12T19:07:18.074Z,2.00
2023-01-12T19:09:44.889Z,1.93
2023-01-12T19:12:11.931Z,2.57
2023-01-12T19:14:57.147Z,2.50
2023-01-12T19:17:26.941Z,2.00
2023-01-12T19:19:57.803Z,2.10
2023-01-12T19:22:43.893Z,2.10
2023-01-12T19:25:32.113Z,2.63
2023-01-12T19:28:18.158Z,2.87
2023-01-12T19:30:48.864Z,2.50
2023-01-12T19:33:16.085Z,2.43
2023-01-12T19:35:48.703Z,2.40
2023-01-12T19:38:18.564Z,2.53
2023-01-12T19:40:49.339Z,2.27
2023-01-12T19:43:23.913Z,2.40
2023-01-12T19:45:53.974Z,2.90
2023-01-12T19:48:23.470Z,2.60
2023-01-12T19:50:51.213Z,2.50
2023-01-12T19:53:21.070Z,2.77
2023-01-12T19:55:50.090Z,2.40
2023-01-12T19:58:17.168Z,2.57
2023-01-12T20:00:46.295Z,2.53
2023-01-12T20:03:15.362Z,1.90
2023-01-12T20:05:43.148Z,2.23
2023-01-12T20:08:11.444Z,2.30
2023-01-12T20:10:41.490Z,2.50
2023-01-12T20:13:10.627Z,2.30
2023-01-12T20:15:39.036Z,2.27
2023-01-12T20:18:08.446Z,2.17
2023-01-12T20:20:35.472Z,2.03
2023-01-12T20:23:02.186Z,2.17
2023-01-12T20:25:29.279Z,2.20
2023-01-12T20:27:56.047Z,1.70
2023-01-12T20:30:36.975Z,2.10
2023-01-12T20:33:06.530Z,2.10
2023-01-12T20:35:34.989Z,2.10
2023-01-12T20:38:04.449Z,1.80
2023-01-12T20:40:31.236Z,1.80
2023-01-12T20:42:58.103Z,2.23
2023-01-12T20:45:24.901Z,2.00
2023-01-12T20:47:51.723Z,1.80
2023-01-12T20:50:19.061Z,2.10
2023-01-12T20:52:48.126Z,1.77
2023-01-12T20:55:15.639Z,1.83
2023-01-12T20:57:42.507Z,1.90
2023-01-12T21:00:10.752Z,1.50
2023-01-12T21:02:37.685Z,1.47
2023-01-12T21:05:04.853Z,1.50
2023-01-12T21:07:31.994Z,1.60
2023-01-12T21:09:58.956Z,1.60
2023-01-12T21:12:27.663Z,1.70
2023-01-12T21:14:54.965Z,0.97
2023-01-12T21:17:22.014Z,1.57
2023-01-12T21:19:48.880Z,1.53
2023-01-12T21:22:15.818Z,1.43
2023-01-12T21:24:42.791Z,1.60
2023-01-12T21:27:09.649Z,1.37
2023-01-12T21:29:36.538Z,1.17
2023-01-12T21:32:03.398Z,1.10
2023-01-12T21:34:30.180Z,1.17
2023-01-12T21:36:57.160Z,0.90
2023-01-12T21:39:23.983Z,1.27
2023-01-12T21:42:09.333Z,1.30
2023-01-12T21:44:36.101Z,1.10
2023-01-12T21:47:02.832Z,1.80
2023-01-12T21:49:31.593Z,1.00
2023-01-12T21:51:58.389Z,1.10
2023-01-12T21:54:25.173Z,1.07
2023-01-12T21:56:51.920Z,1.10
2023-01-12T21:59:18.744Z,1.10
2023-01-12T22:01:48.594Z,1.20
2023-01-12T22:04:15.497Z,1.50
2023-01-12T22:06:42.439Z,1.47
2023-01-12T22:09:09.236Z,1.70
2023-01-12T22:11:38.661Z,1.70
2023-01-12T22:14:05.427Z,1.00
2023-01-12T22:16:32.219Z,1.30
2023-01-12T22:18:59.032Z,1.67
2023-01-12T22:21:27.164Z,1.67
2023-01-12T22:23:54.018Z,1.30
2023-01-12T22:26:21.585Z,1.47
2023-01-12T22:28:48.936Z,1.17
2023-01-12T22:31:22.062Z,1.40
2023-01-12T22:34:05.069Z,1.20
2023-01-12T22:36:35.079Z,1.30
2023-01-12T22:39:02.495Z,1.10
2023-01-12T22:41:29.284Z,1.57
2023-01-12T22:43:56.039Z,1.30
2023-01-12T22:46:25.092Z,1.20
2023-01-12T22:48:56.673Z,1.40
2023-01-12T22:51:25.622Z,1.53
2023-01-12T22:53:53.671Z,1.30
2023-01-12T22:56:20.685Z,1.20
2023-01-12T22:58:52.043Z,1.47
2023-01-12T23:01:20.556Z,1.33
2023-01-12T23:03:48.755Z,1.70
2023-01-12T23:06:17.143Z,1.80
2023-01-12T23:08:45.233Z,1.70
2023-01-12T23:11:14.650Z,1.67
2023-01-12T23:13:42.971Z,1.83
2023-01-12T23:16:12.057Z,2.03
2023-01-12T23:18:42.819Z,1.80
2023-01-12T23:21:21.930Z,2.73
2023-01-12T23:23:53.920Z,2.17
2023-01-12T23:26:24.036Z,2.07
2023-01-12T23:28:56.300Z,2.33
2023-01-12T23:31:25.752Z,2.63
2023-01-12T23:33:53.417Z,2.53
2023-01-12T23:36:23.326Z,2.70
2023-01-12T23:38:58.887Z,2.77
2023-01-12T23:41:27.729Z,2.47
2023-01-12T23:43:59.370Z,2.93
2023-01-12T23:46:28.357Z,2.17
2023-01-12T23:48:57.067Z,2.40
2023-01-12T23:51:24.978Z,2.10
2023-01-12T23:53:53.596Z,3.00
2023-01-12T23:56:20.463Z,2.73
2023-01-12T23:58:47.801Z,2.27
